createdAt,value
2023-06-16T00:00:13.930Z,18.14
2023-06-16T00:02:49.035Z,18.22
2023-06-16T00:05:17.948Z,18.42
2023-06-16T00:07:47.691Z,18.64
2023-06-16T00:10:17.080Z,18.88
2023-06-16T00:12:46.263Z,19.08
2023-06-16T00:15:15.420Z,19.43
2023-06-16T00:17:48.869Z,20.48
2023-06-16T00:20:22.297Z,21.16
2023-06-16T00:22:51.292Z,21.73
2023-06-16T00:25:30.563Z,21.84
2023-06-16T00:27:59.373Z,21.59
2023-06-16T00:30:28.390Z,21.40
2023-06-16T00:32:57.329Z,21.12
2023-06-16T00:35:26.464Z,20.82
2023-06-16T00:37:55.259Z,20.55
2023-06-16T00:40:24.484Z,20.31
2023-06-16T00:42:55.849Z,20.01
2023-06-16T00:45:27.547Z,19.78
2023-06-16T00:47:57.099Z,19.64
2023-06-16T00:50:26.881Z,19.45
2023-06-16T00:52:57.301Z,19.34
2023-06-16T00:55:26.938Z,19.32
2023-06-16T00:57:56.388Z,19.38
2023-06-16T01:00:26.053Z,19.52
2023-06-16T01:02:55.126Z,19.48
2023-06-16T01:05:26.779Z,19.41
2023-06-16T01:08:33.539Z,19.41
2023-06-16T01:11:37.374Z,19.37
2023-06-16T01:14:38.735Z,19.19
2023-06-16T01:17:10.498Z,19.16
2023-06-16T01:19:52.190Z,19.09
2023-06-16T01:22:50.048Z,18.94
2023-06-16T01:25:24.784Z,18.82
2023-06-16T01:27:56.139Z,18.78
2023-06-16T01:30:30.568Z,18.84
2023-06-16T01:33:02.206Z,18.78
2023-06-16T01:35:36.329Z,18.66
2023-06-16T01:38:06.102Z,18.53
2023-06-16T01:40:37.314Z,18.42
2023-06-16T01:43:08.277Z,18.33
2023-06-16T01:45:38.593Z,18.28
2023-06-16T01:48:09.230Z,18.20
2023-06-16T01:50:38.497Z,18.12
2023-06-16T01:53:09.979Z,18.06
2023-06-16T01:55:38.782Z,18.05
2023-06-16T01:58:08.908Z,17.99
2023-06-16T02:00:58.204Z,17.90
2023-06-16T02:03:36.070Z,17.79
2023-06-16T02:06:17.828Z,17.76
2023-06-16T02:08:50.815Z,17.76
2023-06-16T02:11:20.883Z,17.78
2023-06-16T02:13:51.344Z,17.79
2023-06-16T02:16:22.866Z,17.75
2023-06-16T02:18:56.008Z,17.73
2023-06-16T02:21:25.177Z,17.69
2023-06-16T02:23:54.441Z,17.63
2023-06-16T02:26:23.921Z,17.56
2023-06-16T02:28:55.271Z,17.48
2023-06-16T02:31:24.485Z,17.42
2023-06-16T02:33:57.957Z,17.28
2023-06-16T02:36:27.048Z,17.18
2023-06-16T02:38:55.851Z,17.08
2023-06-16T02:41:25.090Z,16.94
2023-06-16T02:43:56.647Z,16.83
2023-06-16T02:46:25.903Z,16.75
2023-06-16T02:48:54.778Z,16.68
2023-06-16T02:51:23.824Z,16.60
2023-06-16T02:53:54.080Z,16.54
2023-06-16T02:56:26.305Z,16.43
2023-06-16T02:59:00.657Z,16.33
2023-06-16T03:01:31.369Z,16.25
2023-06-16T03:04:02.172Z,16.21
2023-06-16T03:06:36.747Z,16.11
2023-06-16T03:09:08.247Z,15.98
2023-06-16T03:11:37.619Z,15.89
2023-06-16T03:14:06.709Z,15.80
2023-06-16T03:16:43.505Z,15.70
2023-06-16T03:19:13.846Z,15.60
2023-06-16T03:21:42.717Z,15.52
2023-06-16T03:24:19.342Z,15.43
2023-06-16T03:26:49.026Z,15.32
2023-06-16T03:29:17.911Z,15.19
2023-06-16T03:31:47.400Z,15.09
2023-06-16T03:34:24.744Z,14.98
2023-06-16T03:36:54.403Z,14.90
2023-06-16T03:39:23.516Z,14.77
2023-06-16T03:41:52.577Z,14.67
2023-06-16T03:44:21.643Z,14.58
2023-06-16T03:46:51.571Z,14.49
2023-06-16T03:49:23.947Z,14.41
2023-06-16T03:51:52.946Z,14.31
2023-06-16T03:54:22.507Z,14.22
2023-06-16T03:56:51.505Z,14.13
2023-06-16T03:59:21.218Z,14.06
2023-06-16T04:01:53.843Z,13.98
2023-06-16T04:04:22.866Z,13.90
2023-06-16T04:06:54.330Z,13.84
2023-06-16T04:09:24.450Z,13.76
2023-06-16T04:11:56.500Z,13.69
2023-06-16T04:14:28.119Z,13.63
2023-06-16T04:16:57.558Z,13.55
2023-06-16T04:19:28.436Z,13.45
2023-06-16T04:22:00.379Z,13.34
2023-06-16T04:24:29.308Z,13.25
2023-06-16T04:27:00.527Z,13.15
2023-06-16T04:29:29.750Z,13.07
2023-06-16T04:32:01.632Z,13.00
2023-06-16T04:34:33.760Z,12.94
2023-06-16T04:37:02.736Z,12.89
2023-06-16T04:39:31.756Z,12.82
2023-06-16T04:42:03.767Z,12.73
2023-06-16T04:44:33.405Z,12.68
2023-06-16T04:47:02.764Z,12.64
2023-06-16T04:49:31.836Z,12.55
2023-06-16T04:52:00.819Z,12.45
2023-06-16T04:54:31.695Z,12.38
2023-06-16T04:57:00.645Z,12.33
2023-06-16T04:59:34.923Z,12.27
2023-06-16T05:02:04.025Z,12.23
2023-06-16T05:04:33.314Z,12.17
2023-06-16T05:07:02.317Z,12.07
2023-06-16T05:10:52.947Z,12.00
2023-06-16T05:13:21.957Z,11.90
2023-06-16T05:16:30.985Z,11.83
2023-06-16T05:19:00.248Z,11.72
2023-06-16T05:21:29.265Z,11.69
2023-06-16T05:24:01.098Z,11.64
2023-06-16T05:26:30.118Z,11.54
2023-06-16T05:29:02.025Z,11.44
2023-06-16T05:31:31.600Z,11.38
2023-06-16T05:34:00.675Z,11.36
2023-06-16T05:36:39.971Z,11.33
2023-06-16T05:39:17.108Z,11.29
2023-06-16T05:41:46.325Z,11.22
2023-06-16T05:44:15.298Z,11.19
2023-06-16T05:46:44.414Z,11.14
2023-06-16T05:49:13.436Z,11.08
2023-06-16T05:51:45.109Z,11.01
2023-06-16T05:54:14.179Z,10.99
2023-06-16T05:56:45.877Z,10.93
2023-06-16T05:59:15.068Z,10.90
2023-06-16T06:01:43.973Z,10.81
2023-06-16T06:04:32.308Z,10.73
2023-06-16T06:07:03.142Z,10.63
2023-06-16T06:09:32.856Z,10.58
2023-06-16T06:12:03.704Z,10.53
2023-06-16T06:14:32.810Z,10.50
2023-06-16T06:17:01.794Z,10.45
2023-06-16T06:19:30.950Z,10.33
2023-06-16T06:22:02.250Z,10.26
2023-06-16T06:24:31.351Z,10.26
2023-06-16T06:27:03.696Z,10.22
2023-06-16T06:29:35.629Z,10.14
2023-06-16T06:32:05.306Z,10.08
2023-06-16T06:34:34.298Z,10.04
2023-06-16T06:37:03.413Z,9.98
2023-06-16T06:39:32.942Z,9.97
2023-06-16T06:42:02.074Z,9.92
2023-06-16T06:44:31.244Z,9.87
2023-06-16T06:47:00.638Z,9.85
2023-06-16T06:49:29.622Z,9.84
2023-06-16T06:52:00.729Z,9.81
2023-06-16T06:54:32.455Z,9.80
2023-06-16T06:57:01.734Z,9.76
2023-06-16T06:59:30.756Z,9.68
2023-06-16T07:01:59.955Z,9.66
2023-06-16T07:04:29.291Z,9.64
2023-06-16T07:07:01.105Z,9.60
2023-06-16T07:09:31.136Z,9.59
2023-06-16T07:12:00.793Z,9.55
2023-06-16T07:14:31.669Z,9.50
2023-06-16T07:17:04.902Z,9.48
2023-06-16T07:19:33.930Z,9.33
2023-06-16T07:22:04.760Z,9.23
2023-06-16T07:24:34.245Z,9.20
2023-06-16T07:27:04.132Z,9.19
2023-06-16T07:29:33.242Z,9.18
2023-06-16T07:32:03.191Z,9.14
2023-06-16T07:34:36.660Z,9.17
2023-06-16T07:37:09.988Z,9.16
2023-06-16T07:39:38.956Z,9.15
2023-06-16T07:42:10.214Z,9.09
2023-06-16T07:44:39.628Z,9.08
2023-06-16T07:47:11.868Z,9.04
2023-06-16T07:49:40.927Z,9.04
2023-06-16T07:52:17.844Z,8.99
2023-06-16T07:54:48.132Z,8.97
2023-06-16T07:57:17.414Z,8.98
2023-06-16T07:59:46.547Z,9.00
2023-06-16T08:02:15.585Z,9.00
2023-06-16T08:04:44.972Z,8.99
2023-06-16T08:07:13.973Z,8.96
2023-06-16T08:09:42.970Z,8.96
2023-06-16T08:12:13.050Z,8.94
2023-06-16T08:14:44.213Z,8.94
2023-06-16T08:17:13.154Z,8.92
2023-06-16T08:19:41.926Z,8.93
2023-06-16T08:22:10.901Z,8.92
2023-06-16T08:24:40.040Z,8.89
2023-06-16T08:27:10.864Z,8.83
2023-06-16T08:29:42.352Z,8.81
2023-06-16T08:32:11.541Z,8.78
2023-06-16T08:34:40.456Z,8.75
2023-06-16T08:37:28.356Z,8.72
2023-06-16T08:39:59.413Z,8.68
2023-06-16T08:42:28.876Z,8.64
2023-06-16T08:44:59.685Z,8.62
2023-06-16T08:47:29.237Z,8.58
2023-06-16T08:49:59.477Z,8.52
2023-06-16T08:52:43.206Z,8.46
2023-06-16T08:55:17.005Z,8.43
2023-06-16T08:57:54.128Z,8.41
2023-06-16T09:00:24.457Z,8.37
2023-06-16T09:02:58.625Z,8.35
2023-06-16T09:05:28.711Z,8.33
2023-06-16T09:07:58.465Z,8.24
2023-06-16T09:10:27.821Z,8.12
2023-06-16T09:13:03.296Z,8.08
2023-06-16T09:15:36.070Z,8.07
2023-06-16T09:18:09.332Z,8.05
2023-06-16T09:20:42.106Z,8.04
2023-06-16T09:23:12.981Z,7.99
2023-06-16T09:25:41.883Z,7.90
2023-06-16T09:28:15.522Z,7.84
2023-06-16T09:30:45.184Z,7.80
2023-06-16T09:33:15.913Z,7.80
2023-06-16T09:35:50.322Z,7.78
2023-06-16T09:38:19.875Z,7.78
2023-06-16T09:40:49.014Z,7.76
2023-06-16T09:43:18.282Z,7.73
2023-06-16T09:45:57.101Z,7.68
2023-06-16T09:48:29.411Z,7.62
2023-06-16T09:51:02.076Z,7.62
2023-06-16T09:53:31.999Z,7.61
2023-06-16T09:56:02.391Z,7.56
2023-06-16T09:58:41.863Z,7.53
2023-06-16T10:01:18.192Z,7.50
2023-06-16T10:03:52.991Z,7.50
2023-06-16T10:06:23.699Z,7.49
2023-06-16T10:08:56.780Z,7.50
2023-06-16T10:11:26.956Z,7.49
2023-06-16T10:14:02.752Z,7.45
2023-06-16T10:16:33.800Z,7.41
2023-06-16T10:19:07.627Z,7.36
2023-06-16T10:21:37.207Z,7.35
2023-06-16T10:24:07.195Z,7.34
2023-06-16T10:26:39.804Z,7.32
2023-06-16T10:29:09.784Z,7.28
2023-06-16T10:31:41.769Z,7.23
2023-06-16T10:34:22.252Z,7.20
2023-06-16T10:36:56.799Z,7.19
2023-06-16T10:39:26.057Z,7.23
2023-06-16T10:42:01.093Z,7.20
2023-06-16T10:44:31.995Z,7.16
2023-06-16T10:47:16.259Z,7.12
2023-06-16T10:50:04.840Z,7.07
2023-06-16T10:52:36.310Z,7.07
2023-06-16T10:55:37.861Z,7.09
2023-06-16T10:58:18.919Z,7.06
2023-06-16T11:01:06.357Z,7.01
2023-06-16T11:03:53.369Z,6.95
2023-06-16T11:06:26.787Z,6.89
2023-06-16T11:09:02.837Z,6.89
2023-06-16T11:11:36.976Z,6.89
2023-06-16T11:14:06.076Z,6.87
2023-06-16T11:16:37.541Z,6.86
2023-06-16T11:19:07.164Z,6.82
2023-06-16T11:21:36.670Z,6.82
2023-06-16T11:24:14.036Z,6.84
2023-06-16T11:26:43.748Z,6.88
2023-06-16T11:29:13.084Z,6.86
2023-06-16T11:31:49.552Z,6.87
2023-06-16T11:34:19.226Z,6.86
2023-06-16T11:36:51.442Z,6.89
2023-06-16T11:39:20.565Z,6.92
2023-06-16T11:42:01.754Z,6.94
2023-06-16T11:44:31.345Z,6.92
2023-06-16T11:47:00.925Z,6.89
2023-06-16T11:49:33.834Z,6.88
2023-06-16T11:52:05.458Z,6.90
2023-06-16T11:54:36.033Z,6.90
2023-06-16T11:57:05.643Z,6.88
2023-06-16T11:59:34.974Z,6.86
2023-06-16T12:02:10.494Z,6.88
2023-06-16T12:04:39.988Z,6.90
2023-06-16T12:07:09.457Z,6.92
2023-06-16T12:09:40.225Z,6.94
2023-06-16T12:12:12.441Z,6.89
2023-06-16T12:14:43.024Z,6.92
2023-06-16T12:17:12.365Z,6.95
2023-06-16T12:19:43.110Z,6.97
2023-06-16T12:22:12.740Z,6.99
2023-06-16T12:24:44.834Z,7.01
2023-06-16T12:27:27.019Z,7.04
2023-06-16T12:30:02.643Z,7.04
2023-06-16T12:32:37.072Z,7.03
2023-06-16T12:35:07.734Z,7.07
2023-06-16T12:37:38.270Z,7.06
2023-06-16T12:40:17.489Z,7.08
2023-06-16T12:42:46.890Z,7.12
2023-06-16T12:45:20.927Z,7.14
2023-06-16T12:47:50.102Z,7.15
2023-06-16T12:50:19.390Z,7.19
2023-06-16T12:52:49.577Z,7.22
2023-06-16T12:55:18.553Z,7.23
2023-06-16T12:57:49.332Z,7.24
2023-06-16T13:00:19.219Z,7.22
2023-06-16T13:02:50.260Z,7.25
2023-06-16T13:05:19.318Z,7.30
2023-06-16T13:07:50.040Z,7.31
2023-06-16T13:10:19.324Z,7.30
2023-06-16T13:12:52.180Z,7.34
2023-06-16T13:15:21.566Z,7.40
2023-06-16T13:17:50.500Z,7.41
2023-06-16T13:20:19.630Z,7.41
2023-06-16T13:22:51.702Z,7.44
2023-06-16T13:25:20.730Z,7.48
2023-06-16T13:27:49.735Z,7.50
2023-06-16T13:30:19.120Z,7.52
2023-06-16T13:32:48.412Z,7.59
2023-06-16T13:35:17.924Z,7.63
2023-06-16T13:37:49.523Z,7.69
2023-06-16T13:40:19.850Z,7.77
2023-06-16T13:46:21.588Z,7.88
2023-06-16T13:48:52.829Z,7.98
2023-06-16T13:51:21.667Z,8.07
2023-06-16T13:53:51.013Z,8.13
2023-06-16T13:56:20.687Z,8.20
2023-06-16T13:58:49.550Z,8.31
2023-06-16T14:01:18.526Z,8.40
2023-06-16T14:03:47.511Z,8.51
2023-06-16T14:06:16.481Z,8.63
2023-06-16T14:08:48.747Z,8.72
2023-06-16T14:11:20.548Z,8.82
2023-06-16T14:13:49.536Z,8.92
2023-06-16T14:16:18.443Z,9.05
2023-06-16T14:18:52.367Z,9.18
2023-06-16T14:21:23.515Z,9.28
2023-06-16T14:23:53.724Z,9.37
2023-06-16T14:26:41.378Z,9.45
2023-06-16T14:29:10.372Z,9.54
2023-06-16T14:31:41.908Z,9.62
2023-06-16T14:34:10.977Z,9.70
2023-06-16T14:36:42.934Z,9.79
2023-06-16T14:39:11.732Z,9.88
2023-06-16T14:41:41.988Z,9.95
2023-06-16T14:44:11.071Z,10.04
2023-06-16T14:46:40.787Z,10.12
2023-06-16T14:49:10.143Z,10.22
2023-06-16T14:51:39.199Z,10.30
2023-06-16T14:54:08.407Z,10.40
2023-06-16T14:56:39.871Z,10.51
2023-06-16T14:59:09.433Z,10.61
2023-06-16T15:01:38.548Z,10.71
2023-06-16T15:04:07.617Z,10.80
2023-06-16T15:06:37.288Z,10.92
2023-06-16T15:09:06.706Z,11.05
2023-06-16T15:11:35.678Z,11.17
2023-06-16T15:14:04.661Z,11.29
2023-06-16T15:16:33.548Z,11.42
2023-06-16T15:19:04.736Z,11.56
2023-06-16T15:21:33.757Z,11.67
2023-06-16T15:24:02.599Z,11.74
2023-06-16T15:26:35.392Z,11.82
2023-06-16T15:29:04.321Z,11.90
2023-06-16T15:31:33.163Z,11.99
2023-06-16T15:34:02.260Z,12.09
2023-06-16T15:36:31.036Z,12.19
2023-06-16T15:39:00.088Z,12.29
2023-06-16T15:41:30.731Z,12.43
2023-06-16T15:44:00.192Z,12.53
2023-06-16T15:46:29.288Z,12.65
2023-06-16T15:49:01.336Z,12.80
2023-06-16T15:51:30.542Z,12.91
2023-06-16T15:53:59.819Z,13.06
2023-06-16T15:56:28.883Z,13.19
2023-06-16T15:58:57.894Z,13.31
2023-06-16T16:01:26.826Z,13.41
2023-06-16T16:03:55.838Z,13.49
2023-06-16T16:06:25.149Z,13.54
2023-06-16T16:08:54.084Z,13.60
2023-06-16T16:11:22.995Z,13.68
2023-06-16T16:13:52.076Z,13.78
2023-06-16T16:16:24.395Z,13.91
2023-06-16T16:18:55.820Z,14.03
2023-06-16T16:21:24.864Z,14.15
2023-06-16T16:23:54.364Z,14.25
2023-06-16T16:26:23.598Z,14.36
2023-06-16T16:28:53.213Z,14.44
2023-06-16T16:31:22.204Z,14.49
2023-06-16T16:33:51.430Z,14.54
2023-06-16T16:36:21.108Z,14.58
2023-06-16T16:38:49.973Z,14.64
2023-06-16T16:41:18.879Z,14.67
2023-06-16T16:43:49.433Z,14.73
2023-06-16T16:46:18.725Z,14.87
2023-06-16T16:48:51.644Z,15.03
2023-06-16T16:51:21.215Z,15.16
2023-06-16T16:53:51.209Z,15.28
2023-06-16T16:56:20.368Z,15.46
2023-06-16T16:58:58.449Z,15.65
2023-06-16T17:01:27.287Z,15.83
2023-06-16T17:03:59.027Z,16.01
2023-06-16T17:06:28.142Z,16.15
2023-06-16T17:08:57.165Z,16.19
2023-06-16T17:11:26.156Z,16.24
2023-06-16T17:13:55.370Z,16.26
2023-06-16T17:16:27.369Z,16.28
2023-06-16T17:18:56.508Z,16.35
2023-06-16T17:21:25.504Z,16.39
2023-06-16T17:23:54.587Z,16.51
2023-06-16T17:26:23.441Z,16.62
2023-06-16T17:28:55.025Z,16.72
2023-06-16T17:31:25.644Z,16.85
2023-06-16T17:33:56.819Z,17.00
2023-06-16T17:36:25.759Z,17.17
2023-06-16T17:38:55.096Z,17.34
2023-06-16T17:41:24.084Z,17.45
2023-06-16T17:43:54.041Z,17.46
2023-06-16T17:46:23.002Z,17.45
2023-06-16T17:48:51.905Z,17.42
2023-06-16T17:51:21.014Z,17.39
2023-06-16T17:53:50.186Z,17.35
2023-06-16T17:56:23.777Z,17.31
2023-06-16T17:58:52.954Z,17.30
2023-06-16T18:01:23.542Z,17.36
2023-06-16T18:03:52.385Z,17.46
2023-06-16T18:06:21.573Z,17.59
2023-06-16T18:08:50.783Z,17.70
2023-06-16T18:11:19.735Z,17.86
2023-06-16T18:13:48.563Z,18.00
2023-06-16T18:16:17.612Z,18.18
2023-06-16T18:18:46.537Z,18.28
2023-06-16T18:21:17.268Z,18.36
2023-06-16T18:23:46.303Z,18.42
2023-06-16T18:26:15.240Z,18.46
2023-06-16T18:28:44.452Z,18.53
2023-06-16T18:31:14.166Z,18.59
2023-06-16T18:33:43.003Z,18.70
2023-06-16T18:36:12.377Z,18.70
2023-06-16T18:38:48.858Z,18.68
2023-06-16T18:41:18.205Z,18.66
2023-06-16T18:43:47.010Z,18.68
2023-06-16T18:46:16.453Z,18.74
2023-06-16T18:48:45.409Z,18.73
2023-06-16T18:51:14.424Z,18.73
2023-06-16T18:53:43.331Z,18.77
2023-06-16T18:56:12.529Z,18.84
2023-06-16T18:58:41.500Z,18.95
2023-06-16T19:01:10.840Z,19.08
2023-06-16T19:03:40.065Z,19.15
2023-06-16T19:06:10.746Z,19.14
2023-06-16T19:08:48.680Z,19.14
2023-06-16T19:11:18.820Z,19.16
2023-06-16T19:13:53.893Z,19.20
2023-06-16T19:16:22.758Z,19.20
2023-06-16T19:18:52.012Z,19.14
2023-06-16T19:21:20.958Z,19.14
2023-06-16T19:23:49.942Z,19.24
2023-06-16T19:26:18.989Z,19.39
2023-06-16T19:28:54.179Z,19.46
2023-06-16T19:31:25.168Z,19.51
2023-06-16T19:33:55.970Z,19.53
2023-06-16T19:36:25.093Z,19.56
2023-06-16T19:38:54.743Z,19.54
2023-06-16T19:41:29.523Z,19.55
2023-06-16T19:43:59.820Z,19.60
2023-06-16T19:46:30.483Z,19.65
2023-06-16T19:49:00.174Z,19.68
2023-06-16T19:51:30.044Z,19.66
2023-06-16T19:53:58.855Z,19.57
2023-06-16T19:56:27.887Z,19.52
2023-06-16T19:58:56.933Z,19.49
2023-06-16T20:01:25.773Z,19.48
2023-06-16T20:03:54.796Z,19.46
2023-06-16T20:06:23.795Z,19.42
2023-06-16T20:08:52.726Z,19.31
2023-06-16T20:11:22.168Z,19.25
2023-06-16T20:13:53.800Z,19.25
2023-06-16T20:16:22.681Z,19.23
2023-06-16T20:18:54.705Z,19.19
2023-06-16T20:21:23.611Z,19.18
2023-06-16T20:23:52.571Z,19.22
2023-06-16T20:26:21.616Z,19.33
2023-06-16T20:28:50.573Z,19.32
2023-06-16T20:31:19.626Z,19.23
2023-06-16T20:33:48.748Z,19.20
2023-06-16T20:36:17.653Z,19.13
2023-06-16T20:38:46.499Z,19.03
2023-06-16T20:41:20.242Z,18.98
2023-06-16T20:43:49.154Z,18.92
2023-06-16T20:46:18.141Z,18.83
2023-06-16T20:48:47.272Z,18.78
2023-06-16T20:51:16.181Z,18.82
2023-06-16T20:53:48.497Z,18.90
2023-06-16T20:56:20.004Z,19.03
2023-06-16T20:58:49.371Z,19.17
2023-06-16T21:01:21.036Z,19.25
2023-06-16T21:03:54.473Z,19.23
2023-06-16T21:06:24.218Z,19.21
2023-06-16T21:09:03.349Z,19.19
2023-06-16T21:11:33.378Z,19.05
2023-06-16T21:14:05.451Z,18.94
2023-06-16T21:16:36.902Z,18.85
2023-06-16T21:19:06.158Z,18.88
2023-06-16T21:21:35.130Z,18.98
2023-06-16T21:24:04.185Z,18.97
2023-06-16T21:26:33.127Z,18.93
2023-06-16T21:29:01.986Z,18.95
2023-06-16T21:31:31.136Z,19.03
2023-06-16T21:34:00.182Z,19.16
2023-06-16T21:36:29.033Z,19.33
2023-06-16T21:39:00.323Z,19.46
2023-06-16T21:41:29.315Z,19.42
2023-06-16T21:43:59.605Z,19.43
2023-06-16T21:46:28.592Z,19.50
2023-06-16T21:48:58.824Z,19.48
2023-06-16T21:51:28.217Z,19.44
2023-06-16T21:53:57.254Z,19.42
2023-06-16T21:56:26.450Z,19.35
2023-06-16T21:58:55.253Z,19.30
2023-06-16T22:01:24.100Z,19.29
2023-06-16T22:03:53.073Z,19.49
2023-06-16T22:06:22.117Z,19.77
2023-06-16T22:08:51.066Z,20.00
2023-06-16T22:11:20.067Z,20.31
2023-06-16T22:13:49.152Z,20.34
2023-06-16T22:16:18.936Z,20.22
2023-06-16T22:18:49.098Z,20.05
2023-06-16T22:21:18.261Z,19.98
2023-06-16T22:23:48.228Z,19.98
2023-06-16T22:26:21.608Z,20.01
2023-06-16T22:28:50.435Z,19.91
2023-06-16T22:31:19.994Z,19.77
2023-06-16T22:33:51.711Z,19.61
2023-06-16T22:36:20.709Z,19.52
2023-06-16T22:38:49.656Z,19.37
2023-06-16T22:41:18.638Z,19.26
2023-06-16T22:43:47.436Z,19.27
2023-06-16T22:46:17.383Z,19.54
2023-06-16T22:48:46.965Z,20.08
2023-06-16T22:51:20.506Z,20.56
2023-06-16T22:53:50.321Z,21.04
2023-06-16T22:56:25.294Z,21.42
2023-06-16T22:58:54.750Z,21.73
2023-06-16T23:01:26.138Z,22.10
2023-06-16T23:03:58.031Z,22.48
2023-06-16T23:06:29.654Z,22.90
2023-06-16T23:08:58.848Z,23.33
2023-06-16T23:11:27.984Z,23.91
2023-06-16T23:13:56.988Z,24.60
2023-06-16T23:16:31.978Z,24.79
2023-06-16T23:19:00.988Z,24.37
2023-06-16T23:21:30.265Z,24.45
2023-06-16T23:23:59.631Z,24.69
2023-06-16T23:26:30.380Z,24.92
2023-06-16T23:29:02.476Z,25.33
2023-06-16T23:31:31.700Z,25.27
2023-06-16T23:34:00.688Z,24.74
2023-06-16T23:36:30.499Z,24.95
2023-06-16T23:38:59.383Z,24.84
2023-06-16T23:41:30.061Z,24.45
2023-06-16T23:43:59.112Z,23.91
2023-06-16T23:46:28.265Z,23.63
2023-06-16T23:48:57.543Z,23.85
2023-06-16T23:51:26.577Z,23.81
2023-06-16T23:53:55.469Z,23.57
2023-06-16T23:56:24.872Z,23.32
2023-06-16T23:58:53.732Z,22.88
